sensor_id;sensor_type;location;lat;lon;timestamp;pressure;altitude;pressure_sealevel;temperature;humidity
23241;BME280;11789;53.482;9.862;2022-07-19T00:00:31;102017.56;;;17.62;76.34
23241;BME280;11789;53.482;9.862;2022-07-19T00:02:56;102025.50;;;17.56;76.54
23241;BME280;11789;53.482;9.862;2022-07-19T00:05:22;102030.75;;;17.54;76.62
23241;BME280;11789;53.482;9.862;2022-07-19T00:07:47;102028.09;;;17.56;76.34
23241;BME280;11789;53.482;9.862;2022-07-19T00:10:15;102038.56;;;17.56;76.43
23241;BME280;11789;53.482;9.862;2022-07-19T00:12:42;102035.12;;;17.51;76.88
23241;BME280;11789;53.482;9.862;2022-07-19T00:15:10;102044.75;;;17.49;77.23
23241;BME280;11789;53.482;9.862;2022-07-19T00:17:40;102039.56;;;17.44;77.49
23241;BME280;11789;53.482;9.862;2022-07-19T00:20:07;102042.22;;;17.41;77.41
23241;BME280;11789;53.482;9.862;2022-07-19T00:22:33;102037.00;;;17.40;77.61
23241;BME280;11789;53.482;9.862;2022-07-19T00:24:58;102037.03;;;17.36;77.73
23241;BME280;11789;53.482;9.862;2022-07-19T00:27:23;102031.88;;;17.27;77.81
23241;BME280;11789;53.482;9.862;2022-07-19T00:29:49;102028.53;;;17.13;78.28
23241;BME280;11789;53.482;9.862;2022-07-19T00:32:14;102034.75;;;17.00;79.04
23241;BME280;11789;53.482;9.862;2022-07-19T00:34:40;102031.34;;;16.92;79.90
23241;BME280;11789;53.482;9.862;2022-07-19T00:37:05;102031.38;;;16.87;80.36
23241;BME280;11789;53.482;9.862;2022-07-19T00:39:31;102034.03;;;16.82;80.50
23241;BME280;11789;53.482;9.862;2022-07-19T00:41:56;102034.09;;;16.78;80.48
23241;BME280;11789;53.482;9.862;2022-07-19T00:44:22;102037.56;;;16.78;80.53
23241;BME280;11789;53.482;9.862;2022-07-19T00:46:47;102034.94;;;16.80;80.37
23241;BME280;11789;53.482;9.862;2022-07-19T00:49:13;102031.50;;;16.75;80.32
23241;BME280;11789;53.482;9.862;2022-07-19T00:51:39;102032.38;;;16.69;80.56
23241;BME280;11789;53.482;9.862;2022-07-19T00:54:08;102039.31;;;16.67;80.59
23241;BME280;11789;53.482;9.862;2022-07-19T00:56:35;102034.13;;;16.66;80.56
23241;BME280;11789;53.482;9.862;2022-07-19T00:59:03;102037.63;;;16.61;80.40
23241;BME280;11789;53.482;9.862;2022-07-19T01:01:29;102035.94;;;16.57;80.31
23241;BME280;11789;53.482;9.862;2022-07-19T01:03:56;102030.75;;;16.51;80.44
23241;BME280;11789;53.482;9.862;2022-07-19T01:06:21;102028.16;;;16.50;80.66
23241;BME280;11789;53.482;9.862;2022-07-19T01:08:48;102031.62;;;16.50;80.67
23241;BME280;11789;53.482;9.862;2022-07-19T01:11:13;102035.97;;;16.50;80.50
23241;BME280;11789;53.482;9.862;2022-07-19T01:13:39;102034.25;;;16.49;80.45
23241;BME280;11789;53.482;9.862;2022-07-19T01:16:04;102038.59;;;16.47;80.67
23241;BME280;11789;53.482;9.862;2022-07-19T01:18:30;102039.47;;;16.46;80.76
23241;BME280;11789;53.482;9.862;2022-07-19T01:20:57;102033.41;;;16.42;80.85
23241;BME280;11789;53.482;9.862;2022-07-19T01:23:23;102034.31;;;16.40;80.87
23241;BME280;11789;53.482;9.862;2022-07-19T01:25:49;102027.38;;;16.35;81.03
23241;BME280;11789;53.482;9.862;2022-07-19T01:28:14;102025.63;;;16.31;81.52
23241;BME280;11789;53.482;9.862;2022-07-19T01:30:40;102023.06;;;16.30;81.91
23241;BME280;11789;53.482;9.862;2022-07-19T01:33:05;102026.53;;;16.30;81.84
23241;BME280;11789;53.482;9.862;2022-07-19T01:35:31;102036.09;;;16.31;81.53
23241;BME280;11789;53.482;9.862;2022-07-19T01:37:56;102037.88;;;16.28;81.50
23241;BME280;11789;53.482;9.862;2022-07-19T01:40:22;102034.38;;;16.27;81.46
23241;BME280;11789;53.482;9.862;2022-07-19T01:42:48;102035.22;;;16.34;81.19
23241;BME280;11789;53.482;9.862;2022-07-19T01:45:14;102032.56;;;16.39;80.62
23241;BME280;11789;53.482;9.862;2022-07-19T01:47:40;102037.75;;;16.42;80.22
23241;BME280;11789;53.482;9.862;2022-07-19T01:50:09;102043.84;;;16.45;79.91
23241;BME280;11789;53.482;9.862;2022-07-19T01:52:35;102036.03;;;16.44;79.56
23241;BME280;11789;53.482;9.862;2022-07-19T01:55:00;102036.97;;;16.33;79.92
23241;BME280;11789;53.482;9.862;2022-07-19T01:57:26;102030.06;;;16.23;80.40
23241;BME280;11789;53.482;9.862;2022-07-19T01:59:54;102029.22;;;16.18;80.89
23241;BME280;11789;53.482;9.862;2022-07-19T02:02:19;102033.56;;;16.19;80.81
23241;BME280;11789;53.482;9.862;2022-07-19T02:04:45;102027.50;;;16.17;80.48
23241;BME280;11789;53.482;9.862;2022-07-19T02:07:10;102024.03;;;16.12;80.73
23241;BME280;11789;53.482;9.862;2022-07-19T02:09:35;102016.22;;;16.07;80.80
23241;BME280;11789;53.482;9.862;2022-07-19T02:12:01;102018.84;;;16.07;80.87
23241;BME280;11789;53.482;9.862;2022-07-19T02:14:26;102020.59;;;16.07;80.67
23241;BME280;11789;53.482;9.862;2022-07-19T02:16:52;102011.03;;;16.00;80.88
23241;BME280;11789;53.482;9.862;2022-07-19T02:19:17;102017.13;;;15.96;81.43
23241;BME280;11789;53.482;9.862;2022-07-19T02:21:42;102014.56;;;15.88;82.03
23241;BME280;11789;53.482;9.862;2022-07-19T02:24:08;102013.72;;;15.83;82.25
23241;BME280;11789;53.482;9.862;2022-07-19T02:26:34;102017.19;;;15.80;82.38
23241;BME280;11789;53.482;9.862;2022-07-19T02:29:00;102016.34;;;15.78;82.53
23241;BME280;11789;53.482;9.862;2022-07-19T02:31:26;102018.97;;;15.74;82.72
23241;BME280;11789;53.482;9.862;2022-07-19T02:33:51;102014.66;;;15.71;82.96
23241;BME280;11789;53.482;9.862;2022-07-19T02:36:17;102014.66;;;15.71;83.00
23241;BME280;11789;53.482;9.862;2022-07-19T02:38:43;102010.28;;;15.70;83.14
23241;BME280;11789;53.482;9.862;2022-07-19T02:41:09;102004.22;;;15.65;83.31
23241;BME280;11789;53.482;9.862;2022-07-19T02:43:34;102014.66;;;15.65;83.31
23241;BME280;11789;53.482;9.862;2022-07-19T02:46:00;102014.66;;;15.67;83.26
23241;BME280;11789;53.482;9.862;2022-07-19T02:48:25;102015.53;;;15.67;82.99
23241;BME280;11789;53.482;9.862;2022-07-19T02:50:51;102013.81;;;15.66;83.16
23241;BME280;11789;53.482;9.862;2022-07-19T02:53:16;102021.59;;;15.68;83.04
23241;BME280;11789;53.482;9.862;2022-07-19T02:55:42;102019.84;;;15.70;82.51
23241;BME280;11789;53.482;9.862;2022-07-19T02:58:07;102019.84;;;15.70;82.22
23241;BME280;11789;53.482;9.862;2022-07-19T03:00:33;102025.06;;;15.74;81.97
23241;BME280;11789;53.482;9.862;2022-07-19T03:02:59;102027.69;;;15.71;81.91
23241;BME280;11789;53.482;9.862;2022-07-19T03:05:44;102030.28;;;15.70;82.05
23241;BME280;11789;53.482;9.862;2022-07-19T03:08:10;102030.28;;;15.70;81.69
23241;BME280;11789;53.482;9.862;2022-07-19T03:10:35;102032.91;;;15.68;81.71
23241;BME280;11789;53.482;9.862;2022-07-19T03:13:01;102038.12;;;15.68;81.64
23241;BME280;11789;53.482;9.862;2022-07-19T03:15:26;102020.72;;;15.66;81.81
23241;BME280;11789;53.482;9.862;2022-07-19T03:17:52;102030.28;;;15.65;81.57
23241;BME280;11789;53.482;9.862;2022-07-19T03:20:17;102036.38;;;15.67;81.48
23241;BME280;11789;53.482;9.862;2022-07-19T03:22:43;102037.25;;;15.69;81.46
23241;BME280;11789;53.482;9.862;2022-07-19T03:25:08;102029.41;;;15.69;81.12
23241;BME280;11789;53.482;9.862;2022-07-19T03:27:34;102028.56;;;15.69;80.85
23241;BME280;11789;53.482;9.862;2022-07-19T03:29:59;102035.50;;;15.65;80.90
23241;BME280;11789;53.482;9.862;2022-07-19T03:32:25;102034.63;;;15.55;81.87
23241;BME280;11789;53.482;9.862;2022-07-19T03:34:50;102039.84;;;15.55;82.17
23241;BME280;11789;53.482;9.862;2022-07-19T03:37:15;102042.44;;;15.60;81.85
23241;BME280;11789;53.482;9.862;2022-07-19T03:39:41;102032.03;;;15.58;81.68
23241;BME280;11789;53.482;9.862;2022-07-19T03:42:06;102040.72;;;15.54;82.07
23241;BME280;11789;53.482;9.862;2022-07-19T03:44:32;102037.25;;;15.52;82.36
23241;BME280;11789;53.482;9.862;2022-07-19T03:46:57;102038.12;;;15.53;82.50
23241;BME280;11789;53.482;9.862;2022-07-19T03:49:23;102034.66;;;15.57;82.58
23241;BME280;11789;53.482;9.862;2022-07-19T03:51:48;102039.87;;;15.63;82.02
23241;BME280;11789;53.482;9.862;2022-07-19T03:54:13;102037.28;;;15.66;81.51
23241;BME280;11789;53.482;9.862;2022-07-19T03:56:39;102043.31;;;15.70;81.35
23241;BME280;11789;53.482;9.862;2022-07-19T03:59:04;102030.28;;;15.73;81.28
23241;BME280;11789;53.482;9.862;2022-07-19T04:01:30;102043.31;;;15.77;81.23
23241;BME280;11789;53.482;9.862;2022-07-19T04:03:55;102044.16;;;15.79;81.07
23241;BME280;11789;53.482;9.862;2022-07-19T04:06:20;102042.44;;;15.81;80.85
23241;BME280;11789;53.482;9.862;2022-07-19T04:08:46;102045.00;;;15.88;80.55
23241;BME280;11789;53.482;9.862;2022-07-19T04:11:11;102042.38;;;15.91;80.42
23241;BME280;11789;53.482;9.862;2022-07-19T04:13:37;102039.75;;;15.94;80.40
23241;BME280;11789;53.482;9.862;2022-07-19T04:16:03;102038.03;;;15.97;80.26
23241;BME280;11789;53.482;9.862;2022-07-19T04:18:29;102038.88;;;16.02;80.05
23241;BME280;11789;53.482;9.862;2022-07-19T04:20:54;102042.31;;;16.07;79.90
23241;BME280;11789;53.482;9.862;2022-07-19T04:23:20;102044.88;;;16.14;79.84
23241;BME280;11789;53.482;9.862;2022-07-19T04:25:45;102042.25;;;16.18;79.60
23241;BME280;11789;53.482;9.862;2022-07-19T04:28:10;102042.22;;;16.21;79.38
23241;BME280;11789;53.482;9.862;2022-07-19T04:30:36;102047.47;;;16.23;79.31
23241;BME280;11789;53.482;9.862;2022-07-19T04:33:01;102048.28;;;16.26;79.29
23241;BME280;11789;53.482;9.862;2022-07-19T04:35:27;102054.34;;;16.31;79.13
23241;BME280;11789;53.482;9.862;2022-07-19T04:37:52;102050.84;;;16.37;78.87
23241;BME280;11789;53.482;9.862;2022-07-19T04:40:17;102046.47;;;16.41;78.87
23241;BME280;11789;53.482;9.862;2022-07-19T04:42:43;102055.12;;;16.49;78.85
23241;BME280;11789;53.482;9.862;2022-07-19T04:45:09;102054.25;;;16.53;78.77
23241;BME280;11789;53.482;9.862;2022-07-19T04:47:34;102055.09;;;16.58;78.92
23241;BME280;11789;53.482;9.862;2022-07-19T04:50:00;102051.53;;;16.62;79.04
23241;BME280;11789;53.482;9.862;2022-07-19T04:52:25;102050.66;;;16.68;78.95
23241;BME280;11789;53.482;9.862;2022-07-19T04:54:51;102049.78;;;16.73;78.88
23241;BME280;11789;53.482;9.862;2022-07-19T04:57:16;102048.84;;;16.80;78.64
23241;BME280;11789;53.482;9.862;2022-07-19T04:59:42;102047.94;;;16.86;78.66
23241;BME280;11789;53.482;9.862;2022-07-19T05:02:07;102049.63;;;16.95;78.51
23241;BME280;11789;53.482;9.862;2022-07-19T05:04:33;102041.69;;;17.04;78.31
23241;BME280;11789;53.482;9.862;2022-07-19T05:06:59;102049.47;;;17.10;78.24
23241;BME280;11789;53.482;9.862;2022-07-19T05:09:25;102050.31;;;17.15;78.36
23241;BME280;11789;53.482;9.862;2022-07-19T05:11:51;102050.25;;;17.18;78.80
23241;BME280;11789;53.482;9.862;2022-07-19T05:14:17;102051.94;;;17.27;78.92
23241;BME280;11789;53.482;9.862;2022-07-19T05:16:43;102040.53;;;17.32;79.27
23241;BME280;11789;53.482;9.862;2022-07-19T05:19:08;102039.56;;;17.43;79.29
23241;BME280;11789;53.482;9.862;2022-07-19T05:21:34;102041.22;;;17.54;79.22
23241;BME280;11789;53.482;9.862;2022-07-19T05:23:59;102041.09;;;17.62;79.56
23241;BME280;11789;53.482;9.862;2022-07-19T05:26:24;102033.16;;;17.71;79.62
23241;BME280;11789;53.482;9.862;2022-07-19T05:28:50;102037.47;;;17.78;80.30
23241;BME280;11789;53.482;9.862;2022-07-19T05:31:15;102033.84;;;17.90;80.12
23241;BME280;11789;53.482;9.862;2022-07-19T05:33:41;102037.19;;;18.01;80.42
23241;BME280;11789;53.482;9.862;2022-07-19T05:36:07;102040.56;;;18.09;80.61
23241;BME280;11789;53.482;9.862;2022-07-19T05:38:37;102036.97;;;18.17;80.25
23241;BME280;11789;53.482;9.862;2022-07-19T05:41:03;102042.91;;;18.29;79.94
23241;BME280;11789;53.482;9.862;2022-07-19T05:43:29;102037.50;;;18.41;80.11
23241;BME280;11789;53.482;9.862;2022-07-19T05:45:54;102038.22;;;18.53;80.21
23241;BME280;11789;53.482;9.862;2022-07-19T05:48:20;102041.59;;;18.61;80.16
23241;BME280;11789;53.482;9.862;2022-07-19T05:50:45;102041.50;;;18.69;79.88
23241;BME280;11789;53.482;9.862;2022-07-19T05:53:11;102042.25;;;18.77;79.62
23241;BME280;11789;53.482;9.862;2022-07-19T05:55:37;102039.56;;;18.81;79.56
23241;BME280;11789;53.482;9.862;2022-07-19T05:58:02;102044.75;;;18.83;79.69
23241;BME280;11789;53.482;9.862;2022-07-19T06:00:28;102048.03;;;18.96;79.55
23241;BME280;11789;53.482;9.862;2022-07-19T06:02:54;102040.84;;;19.08;79.40
23241;BME280;11789;53.482;9.862;2022-07-19T06:05:19;102045.09;;;19.14;79.40
23241;BME280;11789;53.482;9.862;2022-07-19T06:07:45;102041.47;;;19.23;79.38
23241;BME280;11789;53.482;9.862;2022-07-19T06:10:10;102037.81;;;19.31;79.52
23241;BME280;11789;53.482;9.862;2022-07-19T06:12:36;102033.34;;;19.36;79.52
23241;BME280;11789;53.482;9.862;2022-07-19T06:15:01;102040.19;;;19.43;79.42
23241;BME280;11789;53.482;9.862;2022-07-19T06:17:27;102033.94;;;19.51;79.62
23241;BME280;11789;53.482;9.862;2022-07-19T06:19:53;102027.66;;;19.61;79.12
23241;BME280;11789;53.482;9.862;2022-07-19T06:22:18;102026.66;;;19.68;78.98
23241;BME280;11789;53.482;9.862;2022-07-19T06:24:43;102015.97;;;19.77;78.52
23241;BME280;11789;53.482;9.862;2022-07-19T06:27:09;102031.28;;;19.97;76.91
23241;BME280;11789;53.482;9.862;2022-07-19T06:29:35;102034.38;;;20.16;76.30
23241;BME280;11789;53.482;9.862;2022-07-19T06:32:00;102037.50;;;20.32;76.06
23241;BME280;11789;53.482;9.862;2022-07-19T06:34:26;102035.47;;;20.44;75.71
23241;BME280;11789;53.482;9.862;2022-07-19T06:36:51;102039.63;;;20.56;75.03
23241;BME280;11789;53.482;9.862;2022-07-19T06:39:16;102042.84;;;20.67;74.68
23241;BME280;11789;53.482;9.862;2022-07-19T06:41:42;102053.09;;;20.78;73.80
23241;BME280;11789;53.482;9.862;2022-07-19T06:44:35;102048.53;;;20.86;73.08
23241;BME280;11789;53.482;9.862;2022-07-19T06:47:01;102056.94;;;21.01;72.20
23241;BME280;11789;53.482;9.862;2022-07-19T06:49:26;102047.91;;;21.11;72.21
23241;BME280;11789;53.482;9.862;2022-07-19T06:51:52;102042.47;;;21.17;72.69
23241;BME280;11789;53.482;9.862;2022-07-19T06:54:18;102050.13;;;21.26;72.73
23241;BME280;11789;53.482;9.862;2022-07-19T06:56:43;102053.25;;;21.42;71.19
23241;BME280;11789;53.482;9.862;2022-07-19T06:59:08;102044.16;;;21.54;69.19
23241;BME280;11789;53.482;9.862;2022-07-19T07:01:34;102048.22;;;21.65;68.23
23241;BME280;11789;53.482;9.862;2022-07-19T07:03:59;102047.94;;;21.74;64.74
23241;BME280;11789;53.482;9.862;2022-07-19T07:06:25;102048.72;;;21.80;62.72
23241;BME280;11789;53.482;9.862;2022-07-19T07:08:50;102047.47;;;21.91;62.68
23241;BME280;11789;53.482;9.862;2022-07-19T07:11:15;102043.66;;;22.01;60.38
23241;BME280;11789;53.482;9.862;2022-07-19T07:13:41;102042.50;;;22.12;58.69
23241;BME280;11789;53.482;9.862;2022-07-19T07:16:07;102041.22;;;22.25;56.94
23241;BME280;11789;53.482;9.862;2022-07-19T07:18:32;102049.63;;;22.38;56.00
23241;BME280;11789;53.482;9.862;2022-07-19T07:20:58;102051.81;;;22.51;55.41
23241;BME280;11789;53.482;9.862;2022-07-19T07:23:23;102049.94;;;22.55;55.25
23241;BME280;11789;53.482;9.862;2022-07-19T07:25:49;102048.88;;;22.61;55.33
23241;BME280;11789;53.482;9.862;2022-07-19T07:28:15;102045.84;;;22.73;54.05
23241;BME280;11789;53.482;9.862;2022-07-19T07:30:40;102052.78;;;22.75;53.89
23241;BME280;11789;53.482;9.862;2022-07-19T07:33:06;102051.75;;;22.81;52.47
23241;BME280;11789;53.482;9.862;2022-07-19T07:35:31;102049.75;;;22.88;52.26
23241;BME280;11789;53.482;9.862;2022-07-19T07:37:56;102057.56;;;22.92;51.84
23241;BME280;11789;53.482;9.862;2022-07-19T07:40:22;102053.00;;;22.97;52.40
23241;BME280;11789;53.482;9.862;2022-07-19T07:42:48;102051.00;;;23.04;52.33
23241;BME280;11789;53.482;9.862;2022-07-19T07:45:13;102056.97;;;23.09;52.05
23241;BME280;11789;53.482;9.862;2022-07-19T07:47:39;102044.41;;;23.17;52.40
23241;BME280;11789;53.482;9.862;2022-07-19T07:50:06;102047.53;;;23.28;55.05
23241;BME280;11789;53.482;9.862;2022-07-19T07:52:32;102045.59;;;23.34;55.61
23241;BME280;11789;53.482;9.862;2022-07-19T07:54:57;102041.97;;;23.36;55.34
23241;BME280;11789;53.482;9.862;2022-07-19T07:57:23;102043.41;;;23.45;54.30
23241;BME280;11789;53.482;9.862;2022-07-19T07:59:48;102043.16;;;23.52;55.37
23241;BME280;11789;53.482;9.862;2022-07-19T08:02:14;102028.97;;;23.55;55.78
23241;BME280;11789;53.482;9.862;2022-07-19T08:04:39;102027.03;;;23.60;56.21
23241;BME280;11789;53.482;9.862;2022-07-19T08:07:04;102020.25;;;23.78;53.57
23241;BME280;11789;53.482;9.862;2022-07-19T08:09:30;102026.94;;;23.87;53.16
23241;BME280;11789;53.482;9.862;2022-07-19T08:11:56;102024.94;;;23.93;53.25
23241;BME280;11789;53.482;9.862;2022-07-19T08:14:21;102016.34;;;23.88;53.28
23241;BME280;11789;53.482;9.862;2022-07-19T08:16:47;102021.62;;;23.88;50.36
23241;BME280;11789;53.482;9.862;2022-07-19T08:19:12;102019.66;;;23.93;50.09
23241;BME280;11789;53.482;9.862;2022-07-19T08:21:38;102018.75;;;24.16;47.26
23241;BME280;11789;53.482;9.862;2022-07-19T08:24:04;102016.25;;;24.35;45.32
23241;BME280;11789;53.482;9.862;2022-07-19T08:26:29;102012.16;;;24.50;44.84
23241;BME280;11789;53.482;9.862;2022-07-19T08:28:57;102006.69;;;24.54;44.60
23241;BME280;11789;53.482;9.862;2022-07-19T08:31:22;102007.88;;;24.68;42.49
23241;BME280;11789;53.482;9.862;2022-07-19T08:33:48;102006.56;;;24.78;42.50
23241;BME280;11789;53.482;9.862;2022-07-19T08:36:13;102002.97;;;24.80;42.95
23241;BME280;11789;53.482;9.862;2022-07-19T08:38:39;101991.31;;;24.84;43.11
23241;BME280;11789;53.482;9.862;2022-07-19T08:41:06;101986.03;;;24.84;42.80
23241;BME280;11789;53.482;9.862;2022-07-19T08:43:32;101989.28;;;24.91;43.39
23241;BME280;11789;53.482;9.862;2022-07-19T08:45:59;101988.03;;;25.00;42.09
23241;BME280;11789;53.482;9.862;2022-07-19T08:48:26;101994.28;;;24.97;43.41
23241;BME280;11789;53.482;9.862;2022-07-19T08:50:53;101981.78;;;25.01;44.67
23241;BME280;11789;53.482;9.862;2022-07-19T08:53:19;101977.28;;;25.03;44.74
23241;BME280;11789;53.482;9.862;2022-07-19T08:55:45;101976.25;;;25.07;44.76
23241;BME280;11789;53.482;9.862;2022-07-19T08:58:11;101980.44;;;25.13;44.68
23241;BME280;11789;53.482;9.862;2022-07-19T09:00:36;101982.22;;;25.12;45.09
23241;BME280;11789;53.482;9.862;2022-07-19T09:03:04;101981.00;;;25.19;44.99
23241;BME280;11789;53.482;9.862;2022-07-19T09:05:31;101975.38;;;25.27;45.52
23241;BME280;11789;53.482;9.862;2022-07-19T09:08:01;101971.59;;;25.32;44.73
23241;BME280;11789;53.482;9.862;2022-07-19T09:10:27;101975.72;;;25.40;44.69
23241;BME280;11789;53.482;9.862;2022-07-19T09:13:12;101978.06;;;25.46;45.76
23241;BME280;11789;53.482;9.862;2022-07-19T09:20:36;101979.50;;;25.72;43.68
23241;BME280;11789;53.482;9.862;2022-07-19T09:23:02;101983.78;;;25.74;43.38
23241;BME280;11789;53.482;9.862;2022-07-19T09:25:39;101979.44;;;25.73;41.49
23241;BME280;11789;53.482;9.862;2022-07-19T09:28:05;101993.34;;;25.78;42.48
23241;BME280;11789;53.482;9.862;2022-07-19T09:30:53;101979.97;;;25.81;42.74
23241;BME280;11789;53.482;9.862;2022-07-19T09:33:26;101983.09;;;25.90;43.25
23241;BME280;11789;53.482;9.862;2022-07-19T09:35:57;101976.75;;;25.94;43.13
23241;BME280;11789;53.482;9.862;2022-07-19T09:38:25;101982.75;;;25.97;43.91
23241;BME280;11789;53.482;9.862;2022-07-19T09:46:46;101971.44;;;26.30;44.63
23241;BME280;11789;53.482;9.862;2022-07-19T09:49:15;101973.66;;;26.39;44.08
23241;BME280;11789;53.482;9.862;2022-07-19T09:51:46;101974.94;;;26.49;44.53
23241;BME280;11789;53.482;9.862;2022-07-19T09:54:17;101974.00;;;26.50;44.64
23241;BME280;11789;53.482;9.862;2022-07-19T09:56:45;101967.94;;;26.48;44.59
23241;BME280;11789;53.482;9.862;2022-07-19T09:59:11;101973.63;;;26.58;43.92
23241;BME280;11789;53.482;9.862;2022-07-19T10:01:37;101963.97;;;26.57;44.37
23241;BME280;11789;53.482;9.862;2022-07-19T10:04:10;101958.03;;;26.52;44.75
23241;BME280;11789;53.482;9.862;2022-07-19T10:06:37;101968.47;;;26.55;43.24
23241;BME280;11789;53.482;9.862;2022-07-19T10:09:06;101961.53;;;26.70;43.43
23241;BME280;11789;53.482;9.862;2022-07-19T10:11:33;101962.16;;;26.75;43.33
23241;BME280;11789;53.482;9.862;2022-07-19T10:13:58;101965.44;;;26.80;42.95
23241;BME280;11789;53.482;9.862;2022-07-19T10:16:45;101958.72;;;26.90;42.61
23241;BME280;11789;53.482;9.862;2022-07-19T10:19:22;101962.06;;;26.94;42.12
23241;BME280;11789;53.482;9.862;2022-07-19T10:21:54;101957.28;;;27.00;41.37
23241;BME280;11789;53.482;9.862;2022-07-19T10:27:15;101955.56;;;26.99;42.06
23241;BME280;11789;53.482;9.862;2022-07-19T10:29:42;101954.81;;;26.97;41.68
23241;BME280;11789;53.482;9.862;2022-07-19T10:32:09;101951.59;;;26.90;41.45
23241;BME280;11789;53.482;9.862;2022-07-19T10:34:36;101942.47;;;26.96;40.64
23241;BME280;11789;53.482;9.862;2022-07-19T10:37:01;101930.50;;;27.05;39.71
23241;BME280;11789;53.482;9.862;2022-07-19T10:39:36;101932.19;;;27.07;40.19
23241;BME280;11789;53.482;9.862;2022-07-19T10:50:00;101923.41;;;27.23;39.12
23241;BME280;11789;53.482;9.862;2022-07-19T10:58:08;101918.53;;;27.62;39.92
23241;BME280;11789;53.482;9.862;2022-07-19T11:00:29;101916.47;;;27.67;38.19
23241;BME280;11789;53.482;9.862;2022-07-19T11:05:59;101911.94;;;27.70;39.09
23241;BME280;11789;53.482;9.862;2022-07-19T11:08:38;101906.62;;;27.70;38.65
23241;BME280;11789;53.482;9.862;2022-07-19T11:11:18;101910.31;;;27.67;38.63
23241;BME280;11789;53.482;9.862;2022-07-19T11:13:49;101906.38;;;27.58;38.92
23241;BME280;11789;53.482;9.862;2022-07-19T11:16:15;101912.31;;;27.63;38.06
23241;BME280;11789;53.482;9.862;2022-07-19T11:18:41;101912.31;;;27.63;39.00
23241;BME280;11789;53.482;9.862;2022-07-19T11:21:09;101906.91;;;27.65;38.80
23241;BME280;11789;53.482;9.862;2022-07-19T11:23:37;101906.47;;;27.73;37.92
23241;BME280;11789;53.482;9.862;2022-07-19T11:26:13;101909.31;;;27.85;37.49
23241;BME280;11789;53.482;9.862;2022-07-19T11:28:41;101906.12;;;27.95;36.66
23241;BME280;11789;53.482;9.862;2022-07-19T11:31:12;101894.19;;;28.02;37.10
23241;BME280;11789;53.482;9.862;2022-07-19T11:33:37;101900.03;;;28.08;36.26
23241;BME280;11789;53.482;9.862;2022-07-19T11:36:03;101901.78;;;28.24;35.99
23241;BME280;11789;53.482;9.862;2022-07-19T11:41:02;101892.00;;;28.40;34.32
23241;BME280;11789;53.482;9.862;2022-07-19T11:43:28;101898.06;;;28.42;35.50
23241;BME280;11789;53.482;9.862;2022-07-19T11:45:54;101895.13;;;28.47;35.03
23241;BME280;11789;53.482;9.862;2022-07-19T11:48:27;101894.44;;;28.43;33.99
23241;BME280;11789;53.482;9.862;2022-07-19T11:51:06;101890.50;;;28.50;34.46
23241;BME280;11789;53.482;9.862;2022-07-19T11:53:34;101886.78;;;28.53;34.31
23241;BME280;11789;53.482;9.862;2022-07-19T11:56:00;101889.38;;;28.54;34.35
23241;BME280;11789;53.482;9.862;2022-07-19T11:58:26;101879.66;;;28.53;34.39
23241;BME280;11789;53.482;9.862;2022-07-19T12:00:52;101876.16;;;28.67;32.15
23241;BME280;11789;53.482;9.862;2022-07-19T12:03:18;101871.88;;;28.79;32.64
23241;BME280;11789;53.482;9.862;2022-07-19T12:05:59;101872.94;;;28.90;32.46
23241;BME280;11789;53.482;9.862;2022-07-19T12:08:39;101863.75;;;29.10;33.50
23241;BME280;11789;53.482;9.862;2022-07-19T12:11:19;101874.97;;;29.15;31.76
23241;BME280;11789;53.482;9.862;2022-07-19T12:13:46;101870.37;;;29.17;32.36
23241;BME280;11789;53.482;9.862;2022-07-19T12:16:12;101867.56;;;29.20;31.86
23241;BME280;11789;53.482;9.862;2022-07-19T12:18:43;101865.06;;;29.17;32.39
23241;BME280;11789;53.482;9.862;2022-07-19T12:21:37;101868.97;;;29.26;32.33
23241;BME280;11789;53.482;9.862;2022-07-19T12:29:33;101865.59;;;29.37;31.80
23241;BME280;11789;53.482;9.862;2022-07-19T12:32:07;101858.19;;;29.28;31.89
23241;BME280;11789;53.482;9.862;2022-07-19T12:37:21;101864.03;;;29.20;32.68
23241;BME280;11789;53.482;9.862;2022-07-19T12:40:12;101867.41;;;29.36;31.01
23241;BME280;11789;53.482;9.862;2022-07-19T12:45:20;101863.22;;;29.46;32.11
23241;BME280;11789;53.482;9.862;2022-07-19T12:47:47;101856.91;;;29.47;32.48
23241;BME280;11789;53.482;9.862;2022-07-19T12:52:47;101859.84;;;29.71;32.33
23241;BME280;11789;53.482;9.862;2022-07-19T12:55:13;101862.69;;;29.68;33.28
23241;BME280;11789;53.482;9.862;2022-07-19T12:57:39;101858.34;;;29.53;33.49
23241;BME280;11789;53.482;9.862;2022-07-19T13:00:04;101860.91;;;29.55;33.37
23241;BME280;11789;53.482;9.862;2022-07-19T13:02:30;101852.62;;;29.59;33.61
23241;BME280;11789;53.482;9.862;2022-07-19T13:04:56;101849.59;;;29.51;34.17
23241;BME280;11789;53.482;9.862;2022-07-19T13:07:21;101854.37;;;29.60;33.29
23241;BME280;11789;53.482;9.862;2022-07-19T13:09:47;101847.00;;;29.64;33.01
23241;BME280;11789;53.482;9.862;2022-07-19T13:12:12;101846.69;;;29.68;33.26
23241;BME280;11789;53.482;9.862;2022-07-19T13:14:38;101858.13;;;29.70;32.71
23241;BME280;11789;53.482;9.862;2022-07-19T13:17:05;101856.31;;;29.71;32.75
23241;BME280;11789;53.482;9.862;2022-07-19T13:19:31;101850.13;;;29.70;32.01
23241;BME280;11789;53.482;9.862;2022-07-19T13:21:57;101854.69;;;29.68;32.88
23241;BME280;11789;53.482;9.862;2022-07-19T13:24:23;101847.09;;;29.62;32.61
23241;BME280;11789;53.482;9.862;2022-07-19T13:26:49;101846.03;;;29.65;31.90
23241;BME280;11789;53.482;9.862;2022-07-19T13:29:15;101840.94;;;29.62;32.24
23241;BME280;11789;53.482;9.862;2022-07-19T13:31:40;101841.62;;;29.78;30.88
23241;BME280;11789;53.482;9.862;2022-07-19T13:34:06;101840.16;;;29.87;31.17